createdAt,value
2015-11-04T00:00:35.560Z,87
2015-11-04T00:01:37.875Z,87
2015-11-04T00:03:42.006Z,87
2015-11-04T00:04:44.601Z,87
2015-11-04T00:06:48.545Z,87
2015-11-04T00:09:54.412Z,87
2015-11-04T00:10:56.478Z,86
2015-11-04T00:11:58.277Z,87
2015-11-04T00:13:00.358Z,86
2015-11-04T00:14:02.501Z,87
2015-11-04T00:15:04.442Z,86
2015-11-04T00:16:06.038Z,87
2015-11-04T00:18:09.902Z,87
2015-11-04T00:19:11.983Z,87
2015-11-04T00:21:16.130Z,87
2015-11-04T00:22:18.180Z,87
2015-11-04T00:23:20.244Z,87
2015-11-04T00:25:24.375Z,87
2015-11-04T00:26:26.441Z,87
2015-11-04T00:27:28.584Z,86
2015-11-04T00:28:30.336Z,86
2015-11-04T00:29:32.121Z,87
2015-11-04T00:30:37.436Z,86
2015-11-04T00:31:36.032Z,86
2015-11-04T00:33:39.632Z,86
2015-11-04T00:34:41.463Z,86
2015-11-04T00:35:46.277Z,86
2015-11-04T00:36:45.093Z,86
2015-11-04T00:38:48.942Z,86
2015-11-04T00:39:53.539Z,86
2015-11-04T00:40:52.635Z,86
2015-11-04T00:41:57.168Z,86
2015-11-04T00:44:59.583Z,86
2015-11-04T00:46:01.586Z,86
2015-11-04T00:47:03.463Z,86
2015-11-04T00:49:06.813Z,86
2015-11-04T00:50:08.628Z,86
2015-11-04T00:51:10.429Z,86
2015-11-04T00:52:12.259Z,86
2015-11-04T00:54:15.873Z,86
2015-11-04T00:55:17.673Z,86
2015-11-04T00:56:19.504Z,86
2015-11-04T00:57:21.053Z,86
2015-11-04T00:58:22.650Z,86
2015-11-04T01:00:26.233Z,86
2015-11-04T01:02:29.599Z,86
2015-11-04T01:03:31.148Z,86
2015-11-04T01:04:32.698Z,86
2015-11-04T01:05:34.513Z,86
2015-11-04T01:06:35.765Z,86
2015-11-04T01:07:37.362Z,86
2015-11-04T01:08:38.990Z,86
2015-11-04T01:10:42.292Z,86
2015-11-04T01:11:43.842Z,86
2015-11-04T01:12:45.704Z,86
2015-11-04T01:13:46.956Z,86
2015-11-04T01:14:48.506Z,86
2015-11-04T01:15:50.056Z,86
2015-11-04T01:16:51.621Z,86
2015-11-04T01:18:54.784Z,86
2015-11-04T01:19:59.551Z,86
2015-11-04T01:20:58.101Z,86
2015-11-04T01:21:59.650Z,86
2015-11-04T01:23:08.516Z,86
2015-11-04T01:25:04.581Z,86
2015-11-04T01:26:06.131Z,86
2015-11-04T01:27:07.695Z,86
2015-11-04T01:28:09.246Z,86
2015-11-04T01:29:10.842Z,86
2015-11-04T01:30:12.611Z,86
2015-11-04T01:32:18.709Z,86
2015-11-04T01:33:17.275Z,86
2015-11-04T01:34:18.825Z,86
2015-11-04T01:35:23.375Z,86
2015-11-04T01:36:21.674Z,86
2015-11-04T01:37:22.989Z,86
2015-11-04T01:39:25.635Z,86
2015-11-04T01:40:30.421Z,86
2015-11-04T01:41:28.687Z,86
2015-11-04T01:42:30.208Z,86
2015-11-04T01:43:31.305Z,86
2015-11-04T01:44:35.619Z,86
2015-11-04T01:46:35.219Z,86
2015-11-04T01:47:36.503Z,86
2015-11-04T01:48:37.803Z,86
2015-11-04T01:50:40.855Z,86
2015-11-04T01:52:43.516Z,86
2015-11-04T01:55:48.181Z,86
2015-11-04T01:56:49.746Z,86
2015-11-04T01:57:51.296Z,86
2015-11-04T01:58:53.127Z,86
2015-11-04T01:59:54.474Z,86
2015-11-04T02:00:56.274Z,86
2015-11-04T02:02:59.841Z,86
2015-11-04T02:05:06.487Z,86
2015-11-04T02:07:07.118Z,86
2015-11-04T02:10:12.611Z,86
2015-11-04T02:11:14.348Z,86
2015-11-04T02:12:16.179Z,86
2015-11-04T02:13:21.010Z,86
2015-11-04T02:15:21.609Z,87
2015-11-04T02:17:25.740Z,87
2015-11-04T02:18:28.039Z,87
2015-11-04T02:19:29.901Z,87
2015-11-04T02:20:32.013Z,87
2015-11-04T02:22:39.096Z,87
2015-11-04T02:24:41.009Z,87
2015-11-04T02:25:42.823Z,87
2015-11-04T02:26:45.154Z,87
2015-11-04T02:28:49.551Z,87
2015-11-04T02:29:51.865Z,87
2015-11-04T02:31:55.996Z,87
2015-11-04T02:34:00.642Z,87
2015-11-04T02:35:02.989Z,87
2015-11-04T02:37:07.635Z,87
2015-11-04T02:39:12.328Z,87
2015-11-04T02:40:14.815Z,87
2015-11-04T02:41:16.989Z,87
2015-11-04T02:42:18.758Z,87
2015-11-04T02:45:26.017Z,87
2015-11-04T02:46:28.113Z,87
2015-11-04T02:47:30.397Z,87
2015-11-04T02:48:32.728Z,87
2015-11-04T02:49:35.043Z,87
2015-11-04T02:50:37.374Z,87
2015-11-04T02:51:39.767Z,87
2015-11-04T02:52:41.519Z,87
2015-11-04T02:53:43.835Z,87
2015-11-04T02:54:46.166Z,87
2015-11-04T02:55:48.825Z,87
2015-11-04T02:56:50.844Z,87
2015-11-04T02:58:55.500Z,87
2015-11-04T02:59:57.816Z,87
2015-11-04T03:02:02.542Z,87
2015-11-04T03:03:04.310Z,87
2015-11-04T03:04:06.626Z,87
2015-11-04T03:05:05.113Z,87
2015-11-04T03:06:03.585Z,87
2015-11-04T03:07:02.069Z,87
2015-11-04T03:08:00.540Z,87
2015-11-04T03:10:55.971Z,87
2015-11-04T03:11:54.519Z,87
2015-11-04T03:12:56.585Z,88
2015-11-04T03:13:58.025Z,87
2015-11-04T03:14:53.482Z,87
2015-11-04T03:15:51.968Z,87
2015-11-04T03:16:50.471Z,88
2015-11-04T03:17:49.193Z,88
2015-11-04T03:18:47.929Z,88
2015-11-04T03:19:46.651Z,88
2015-11-04T03:24:43.430Z,88
2015-11-04T03:25:42.167Z,88
2015-11-04T03:26:40.904Z,88
2015-11-04T03:27:39.627Z,88
2015-11-04T03:28:38.379Z,88
2015-11-04T03:32:36.406Z,88
2015-11-04T03:33:38.158Z,88
2015-11-04T03:34:36.895Z,88
2015-11-04T03:38:31.841Z,88
2015-11-04T03:39:27.547Z,88
2015-11-04T03:41:25.084Z,88
2015-11-04T03:42:29.837Z,88
2015-11-04T03:43:25.573Z,88
2015-11-04T03:44:24.311Z,88
2015-11-04T03:45:23.047Z,88
2015-11-04T03:46:21.784Z,88
2015-11-04T03:47:20.523Z,88
2015-11-04T03:48:22.275Z,88
2015-11-04T03:50:16.733Z,88
2015-11-04T03:51:15.518Z,88
2015-11-04T03:52:17.286Z,88
2015-11-04T03:53:16.023Z,88
2015-11-04T03:54:14.759Z,88
2015-11-04T03:55:13.481Z,88
2015-11-04T03:56:12.234Z,88
2015-11-04T03:57:10.956Z,88
2015-11-04T03:58:09.693Z,88
2015-11-04T03:59:11.759Z,88
2015-11-04T04:00:07.167Z,88
2015-11-04T04:01:05.964Z,88
2015-11-04T04:02:07.717Z,88
2015-11-04T04:03:09.486Z,88
2015-11-04T04:04:05.191Z,88
2015-11-04T04:06:05.728Z,88
2015-11-04T04:07:01.402Z,88
2015-11-04T04:08:00.139Z,88
2015-11-04T04:08:58.877Z,88
2015-11-04T04:09:57.613Z,88
2015-11-04T04:10:56.413Z,88
2015-11-04T04:11:58.416Z,88
2015-11-04T04:14:54.377Z,88
2015-11-04T04:15:53.114Z,88
2015-11-04T04:16:51.852Z,88
2015-11-04T04:18:49.325Z,88
2015-11-04T04:24:44.826Z,88
2015-11-04T04:25:43.829Z,88
2015-11-04T04:26:42.551Z,88
2015-11-04T04:28:39.775Z,88
2015-11-04T04:29:38.512Z,88
2015-11-04T04:30:37.562Z,88
2015-11-04T04:31:39.329Z,88
2015-11-04T04:33:37.304Z,89
2015-11-04T04:34:36.556Z,88
2015-11-04T04:35:35.559Z,88
2015-11-04T04:36:34.543Z,88
2015-11-04T04:37:33.531Z,88
2015-11-04T04:38:32.534Z,88
2015-11-04T04:39:31.521Z,88
2015-11-04T04:40:33.587Z,88
2015-11-04T04:43:33.673Z,88
2015-11-04T04:45:28.568Z,89
2015-11-04T04:46:28.008Z,89
2015-11-04T04:47:27.339Z,88
2015-11-04T04:48:29.295Z,89
2015-11-04T04:50:24.629Z,89
2015-11-04T04:51:26.381Z,89
2015-11-04T04:52:25.634Z,88
2015-11-04T04:54:23.875Z,89
2015-11-04T04:56:25.161Z,88
2015-11-04T04:58:20.104Z,88
2015-11-04T05:00:18.156Z,88
2015-11-04T05:01:19.925Z,88
2015-11-04T05:02:18.912Z,88
2015-11-04T05:03:17.899Z,88
2015-11-04T05:04:16.902Z,88
2015-11-04T05:05:16.155Z,88
2015-11-04T05:06:14.891Z,89
2015-11-04T05:07:14.128Z,88
2015-11-04T05:08:13.444Z,88
2015-11-04T05:09:12.119Z,89
2015-11-04T05:10:11.669Z,88
2015-11-04T05:11:13.202Z,88
2015-11-04T05:12:12.173Z,88
2015-11-04T05:13:11.173Z,88
2015-11-04T05:14:10.177Z,88
2015-11-04T05:15:09.163Z,88
2015-11-04T05:16:08.166Z,88
2015-11-04T05:18:06.140Z,88
2015-11-04T05:20:04.208Z,88
2015-11-04T05:21:05.945Z,88
2015-11-04T05:22:07.963Z,88
2015-11-04T05:23:03.935Z,88
2015-11-04T05:24:03.204Z,88
2015-11-04T05:25:01.925Z,88
2015-11-04T05:26:00.912Z,88
2015-11-04T05:27:00.180Z,88
2015-11-04T05:27:59.214Z,88
2015-11-04T05:28:57.888Z,88
2015-11-04T05:31:57.709Z,88
2015-11-04T05:32:56.759Z,88
2015-11-04T05:33:55.434Z,88
2015-11-04T05:34:54.187Z,88
2015-11-04T05:35:53.174Z,88
2015-11-04T05:36:54.692Z,88
2015-11-04T05:37:50.382Z,88
2015-11-04T05:38:49.135Z,88
2015-11-04T05:39:50.950Z,88
2015-11-04T05:40:49.687Z,88
2015-11-04T05:42:50.177Z,88
2015-11-04T05:43:45.898Z,88
2015-11-04T05:45:43.373Z,88
2015-11-04T05:46:42.125Z,88
2015-11-04T05:47:40.852Z,88
2015-11-04T05:48:39.586Z,88
2015-11-04T05:49:38.370Z,88
2015-11-04T05:50:40.153Z,88
2015-11-04T05:51:38.875Z,88
2015-11-04T05:53:36.366Z,88
2015-11-04T05:54:35.086Z,88
2015-11-04T05:56:32.577Z,88
2015-11-04T05:57:31.314Z,88
2015-11-04T05:58:30.050Z,88
2015-11-04T05:59:28.851Z,88
2015-11-04T06:01:29.341Z,88
2015-11-04T06:02:28.327Z,88
2015-11-04T06:03:26.830Z,88
2015-11-04T06:04:25.833Z,88
2015-11-04T06:05:24.555Z,88
2015-11-04T06:07:21.858Z,88
2015-11-04T06:08:20.266Z,87
2015-11-04T06:09:18.785Z,87
2015-11-04T06:10:20.553Z,87
2015-11-04T06:11:19.352Z,87
2015-11-04T06:12:17.527Z,87
2015-11-04T06:14:18.330Z,87
2015-11-04T06:15:20.660Z,87
2015-11-04T06:16:22.991Z,87
2015-11-04T06:17:28.352Z,87
2015-11-04T06:18:27.980Z,87
2015-11-04T06:19:30.030Z,87
2015-11-04T06:20:31.799Z,87
2015-11-04T06:21:34.145Z,87
2015-11-04T06:22:36.492Z,87
2015-11-04T06:23:34.932Z,87
2015-11-04T06:30:35.276Z,87
2015-11-04T06:33:34.021Z,87
2015-11-04T06:37:24.615Z,87
2015-11-04T06:38:23.101Z,88
2015-11-04T06:39:21.915Z,88
2015-11-04T06:40:23.667Z,88
2015-11-04T06:41:25.434Z,88
2015-11-04T06:42:21.141Z,88
2015-11-04T06:44:18.629Z,88
2015-11-04T06:46:19.135Z,88
2015-11-04T06:47:14.840Z,88
2015-11-04T06:48:13.842Z,88
2015-11-04T06:50:14.066Z,88
2015-11-04T06:53:10.355Z,88
2015-11-04T06:54:09.077Z,88
2015-11-04T06:55:08.033Z,88
2015-11-04T06:56:06.767Z,88
2015-11-04T06:57:05.489Z,88
2015-11-04T06:58:04.241Z,88
2015-11-04T06:59:03.041Z,88
2015-11-04T07:00:04.591Z,88
2015-11-04T07:01:03.328Z,88
2015-11-04T07:02:02.049Z,88
2015-11-04T07:03:00.786Z,88
2015-11-04T07:03:59.538Z,88
2015-11-04T07:04:58.260Z,88
2015-11-04T07:05:57.326Z,88
2015-11-04T07:06:56.032Z,88
2015-11-04T07:07:54.487Z,88
2015-11-04T07:08:53.271Z,88
2015-11-04T07:09:55.040Z,88
2015-11-04T07:10:54.090Z,88
2015-11-04T07:12:54.313Z,88
2015-11-04T07:16:46.215Z,88
2015-11-04T07:17:44.967Z,87
2015-11-04T07:18:43.501Z,87
2015-11-04T07:19:45.254Z,87
2015-11-04T07:20:43.726Z,88
2015-11-04T07:21:42.213Z,88
2015-11-04T07:22:40.701Z,88
2015-11-04T07:24:37.674Z,88
2015-11-04T07:25:36.131Z,88
2015-11-04T07:26:34.618Z,88
2015-11-04T07:27:33.102Z,87
2015-11-04T07:28:35.482Z,87
2015-11-04T07:29:37.251Z,87
2015-11-04T07:30:39.581Z,87
2015-11-04T07:31:41.928Z,87
2015-11-04T07:32:44.228Z,87
2015-11-04T07:33:46.589Z,87
2015-11-04T07:34:48.890Z,87
2015-11-04T07:35:51.220Z,87
2015-11-04T07:36:53.301Z,86
2015-11-04T07:37:55.131Z,86
2015-11-04T07:38:57.009Z,86
2015-11-04T07:39:58.762Z,86
2015-11-04T07:42:02.377Z,86
2015-11-04T07:43:04.192Z,86
2015-11-04T07:44:05.742Z,86
2015-11-04T07:45:07.292Z,86
2015-11-04T07:46:08.607Z,86
2015-11-04T07:48:11.222Z,86
2015-11-04T07:49:12.599Z,86
2015-11-04T07:50:14.336Z,86
2015-11-04T07:51:15.339Z,86
2015-11-04T07:52:16.952Z,86
2015-11-04T07:53:18.235Z,86
2015-11-04T07:55:20.834Z,86
2015-11-04T07:57:23.465Z,86
2015-11-04T07:58:24.749Z,86
2015-11-04T08:00:27.864Z,86
2015-11-04T08:01:29.163Z,86
2015-11-04T08:02:30.462Z,86
2015-11-04T08:03:31.543Z,86
2015-11-04T08:04:32.844Z,86
2015-11-04T08:05:34.143Z,86
2015-11-04T08:06:35.427Z,86
2015-11-04T08:07:36.726Z,86
2015-11-04T08:08:38.026Z,86
2015-11-04T08:09:39.404Z,86
2015-11-04T08:10:41.171Z,86
2015-11-04T08:11:42.456Z,86
2015-11-04T08:12:43.756Z,86
2015-11-04T08:14:46.355Z,86
2015-11-04T08:17:50.300Z,86
2015-11-04T08:18:51.585Z,86
2015-11-04T08:19:52.962Z,86
2015-11-04T08:20:54.684Z,86
2015-11-04T08:21:55.983Z,86
2015-11-04T08:22:57.283Z,86
2015-11-04T08:23:58.614Z,86
2015-11-04T08:24:59.914Z,86
2015-11-04T08:26:01.181Z,86
2015-11-04T08:27:02.481Z,86
2015-11-04T08:28:03.765Z,86
2015-11-04T08:29:05.081Z,86
2015-11-04T08:30:06.193Z,86
2015-11-04T08:31:07.945Z,86
2015-11-04T08:32:08.979Z,85
2015-11-04T08:33:09.795Z,85
2015-11-04T08:34:10.547Z,85
2015-11-04T08:35:11.378Z,85
2015-11-04T08:36:12.147Z,85
2015-11-04T08:37:12.915Z,85
2015-11-04T08:38:13.699Z,85
2015-11-04T08:39:14.483Z,85
2015-11-04T08:40:15.329Z,85
2015-11-04T08:42:17.882Z,85
2015-11-04T08:43:18.650Z,85
2015-11-04T08:44:19.466Z,85
2015-11-04T08:45:20.250Z,85
2015-11-04T08:47:21.831Z,85
2015-11-04T08:48:22.334Z,85
2015-11-04T08:49:22.898Z,85
2015-11-04T08:50:23.464Z,85
2015-11-04T08:51:25.201Z,85
2015-11-04T08:52:25.750Z,85
2015-11-04T08:53:26.253Z,85
2015-11-04T08:54:26.819Z,85
2015-11-04T08:55:27.086Z,85
2015-11-04T08:56:27.371Z,85
2015-11-04T08:57:27.625Z,85
2015-11-04T08:58:27.877Z,85
2015-11-04T08:59:28.192Z,85
2015-11-04T09:00:28.475Z,85
2015-11-04T09:01:30.244Z,85
2015-11-04T09:02:30.513Z,85
2015-11-04T09:03:30.827Z,84
2015-11-04T09:04:30.815Z,85
2015-11-04T09:05:31.099Z,84
2015-11-04T09:06:31.133Z,84
2015-11-04T09:07:31.105Z,84
2015-11-04T09:08:31.155Z,84
2015-11-04T09:09:31.141Z,84
2015-11-04T09:10:30.972Z,84
2015-11-04T09:11:32.709Z,84
2015-11-04T09:12:32.494Z,84
2015-11-04T09:13:32.246Z,84
2015-11-04T09:14:31.999Z,84
2015-11-04T09:15:31.752Z,84
2015-11-04T09:16:31.504Z,84
2015-11-04T09:17:31.290Z,84
2015-11-04T09:18:31.026Z,84
2015-11-04T09:19:30.827Z,84
2015-11-04T09:20:30.610Z,84
2015-11-04T09:21:32.363Z,84
2015-11-04T09:22:32.148Z,84
2015-11-04T09:23:31.901Z,84
2015-11-04T09:26:31.159Z,84
2015-11-04T09:27:30.911Z,84
2015-11-04T09:28:30.661Z,84
2015-11-04T09:29:30.446Z,84
2015-11-04T09:30:30.245Z,84
2015-11-04T09:31:32.012Z,84
2015-11-04T09:32:31.765Z,84
2015-11-04T09:33:31.518Z,84
2015-11-04T09:34:31.287Z,84
2015-11-04T09:35:31.040Z,84
2015-11-04T09:37:30.561Z,84
2015-11-04T09:38:30.314Z,84
2015-11-04T09:39:30.082Z,84
2015-11-04T09:41:31.650Z,84
2015-11-04T09:42:31.137Z,84
2015-11-04T09:43:32.328Z,84
2015-11-04T09:45:32.942Z,84
2015-11-04T09:46:29.414Z,84
2015-11-04T09:47:28.932Z,84
2015-11-04T09:49:27.422Z,84
2015-11-04T09:50:26.722Z,84
2015-11-04T09:52:27.711Z,84
2015-11-04T09:54:29.233Z,84
2015-11-04T09:55:25.438Z,84
2015-11-04T09:56:24.675Z,84
2015-11-04T09:57:23.944Z,84
2015-11-04T09:58:23.165Z,84
2015-11-04T09:59:22.402Z,84
2015-11-04T10:00:21.717Z,84
2015-11-04T10:01:23.455Z,84
2015-11-04T10:02:22.707Z,84
2015-11-04T10:03:21.944Z,84
2015-11-04T10:04:21.197Z,84
2015-11-04T10:06:19.672Z,84
2015-11-04T10:07:18.893Z,84
2015-11-04T10:08:20.911Z,84
2015-11-04T10:09:19.913Z,83
2015-11-04T10:11:17.405Z,83
2015-11-04T10:12:15.889Z,83
2015-11-04T10:14:12.815Z,83
2015-11-04T10:15:15.130Z,83
2015-11-04T10:16:17.446Z,83
2015-11-04T10:18:22.077Z,83
2015-11-04T10:21:28.272Z,82
2015-11-04T10:23:31.859Z,82
2015-11-04T10:24:33.657Z,81
2015-11-04T10:25:35.193Z,81
2015-11-04T10:26:36.742Z,82
2015-11-04T10:27:38.291Z,81
2015-11-04T10:28:39.701Z,81
2015-11-04T10:29:40.876Z,81
2015-11-04T10:30:42.221Z,81
2015-11-04T10:31:43.959Z,81
2015-11-04T10:32:45.243Z,81
2015-11-04T10:33:46.261Z,81
2015-11-04T10:34:47.295Z,81
2015-11-04T10:35:48.329Z,81
2015-11-04T10:36:49.112Z,81
2015-11-04T10:37:49.881Z,81
2015-11-04T10:38:50.651Z,81
2015-11-04T10:39:51.449Z,81
2015-11-04T10:40:52.249Z,81
2015-11-04T10:41:53.987Z,81
2015-11-04T10:42:54.754Z,81
2015-11-04T10:43:55.523Z,80
2015-11-04T10:44:56.042Z,80
2015-11-04T10:45:56.309Z,80
2015-11-04T10:46:56.547Z,80
2015-11-04T10:47:56.830Z,80
2015-11-04T10:48:57.067Z,80
2015-11-04T10:49:57.306Z,79
2015-11-04T10:50:57.370Z,79
2015-11-04T10:51:59.122Z,79
2015-11-04T10:52:59.109Z,79
2015-11-04T10:54:59.100Z,79
2015-11-04T10:55:59.103Z,79
2015-11-04T10:56:58.839Z,79
2015-11-04T10:57:58.574Z,79
2015-11-04T10:58:58.311Z,79
2015-11-04T10:59:58.079Z,79
2015-11-04T11:00:57.848Z,79
2015-11-04T11:01:59.600Z,79
2015-11-04T11:03:58.293Z,78
2015-11-04T11:04:57.546Z,78
2015-11-04T11:05:56.767Z,78
2015-11-04T11:06:55.989Z,78
2015-11-04T11:08:54.463Z,78
2015-11-04T11:09:53.669Z,78
2015-11-04T11:10:52.953Z,78
2015-11-04T11:11:54.690Z,78
2015-11-04T11:12:53.662Z,78
2015-11-04T11:13:52.618Z,78
2015-11-04T11:14:51.339Z,78
2015-11-04T11:15:50.045Z,78
2015-11-04T11:16:48.782Z,78
2015-11-04T11:17:47.488Z,78
2015-11-04T11:18:46.193Z,78
2015-11-04T11:19:44.899Z,77
2015-11-04T11:20:43.402Z,77
2015-11-04T11:21:45.140Z,77
2015-11-04T11:22:43.596Z,77
2015-11-04T11:23:42.066Z,77
2015-11-04T11:24:44.366Z,77
2015-11-04T11:25:46.666Z,77
2015-11-04T11:27:51.015Z,77
2015-11-04T11:28:53.049Z,77
2015-11-04T11:29:55.099Z,76
2015-11-04T11:30:56.929Z,76
2015-11-04T11:31:58.667Z,76
2015-11-04T11:33:00.451Z,76
2015-11-04T11:35:04.019Z,76
2015-11-04T11:36:05.804Z,76
2015-11-04T11:37:07.321Z,76
2015-11-04T11:38:08.871Z,75
2015-11-04T11:39:10.123Z,75
2015-11-04T11:40:11.392Z,75
2015-11-04T11:41:12.723Z,76
2015-11-04T11:42:14.460Z,76
2015-11-04T11:43:15.728Z,75
2015-11-04T11:45:17.749Z,75
2015-11-04T11:46:18.768Z,75
2015-11-04T11:49:21.291Z,75
2015-11-04T11:50:22.059Z,75
2015-11-04T11:51:22.859Z,75
2015-11-04T11:52:24.597Z,75
2015-11-04T11:53:25.350Z,75
2015-11-04T11:54:26.102Z,75
2015-11-04T11:55:26.870Z,75
2015-11-04T11:56:27.622Z,75
2015-11-04T11:57:28.376Z,75
2015-11-04T11:59:30.147Z,75
2015-11-04T12:00:30.634Z,75
2015-11-04T12:01:31.449Z,74
2015-11-04T12:02:33.374Z,75
2015-11-04T12:03:33.923Z,74
2015-11-04T12:04:34.426Z,74
2015-11-04T12:05:37.928Z,74
2015-11-04T12:06:35.416Z,74
2015-11-04T12:07:35.903Z,74
2015-11-04T12:08:39.421Z,74
2015-11-04T12:09:36.644Z,74
2015-11-04T12:10:36.911Z,74
2015-11-04T12:11:37.195Z,74
2015-11-04T12:12:38.917Z,74
2015-11-04T12:13:39.155Z,74
2015-11-04T12:14:39.408Z,74
2015-11-04T12:15:42.660Z,74
2015-11-04T12:16:39.881Z,74
2015-11-04T12:17:43.369Z,74
2015-11-04T12:18:40.371Z,74
2015-11-04T12:19:40.608Z,74
2015-11-04T12:20:40.845Z,74
2015-11-04T12:21:44.160Z,73
2015-11-04T12:22:42.867Z,73
2015-11-04T12:23:45.853Z,73
2015-11-04T12:24:42.841Z,73
2015-11-04T12:25:43.093Z,73
2015-11-04T12:26:42.816Z,73
2015-11-04T12:27:42.786Z,74
2015-11-04T12:29:43.276Z,74
2015-11-04T12:30:43.513Z,74
2015-11-04T12:31:43.813Z,74
2015-11-04T12:32:45.535Z,74
2015-11-04T12:34:45.774Z,73
2015-11-04T12:36:47.155Z,73
2015-11-04T12:38:47.735Z,73
2015-11-04T12:40:48.490Z,73
2015-11-04T12:42:49.043Z,73
2015-11-04T12:43:50.420Z,73
2015-11-04T12:44:47.392Z,73
2015-11-04T12:45:47.364Z,73
2015-11-04T12:48:47.340Z,73
2015-11-04T12:49:47.328Z,73
2015-11-04T12:50:47.909Z,73
2015-11-04T12:51:47.365Z,73
2015-11-04T12:52:49.054Z,73
2015-11-04T12:53:52.370Z,73
2015-11-04T12:54:49.029Z,73
2015-11-04T12:55:49.017Z,73
2015-11-04T12:56:49.003Z,73
2015-11-04T12:57:52.038Z,73
2015-11-04T12:59:48.959Z,73
2015-11-04T13:00:48.947Z,73
2015-11-04T13:01:48.981Z,73
2015-11-04T13:02:53.718Z,73
2015-11-04T13:03:50.689Z,73
2015-11-04T13:04:51.020Z,73
2015-11-04T13:05:53.429Z,73
2015-11-04T13:06:50.134Z,73
2015-11-04T13:07:50.123Z,73
2015-11-04T13:09:49.831Z,73
2015-11-04T13:15:51.534Z,73
2015-11-04T13:16:51.522Z,73
2015-11-04T13:17:51.525Z,73
2015-11-04T13:19:51.733Z,73
2015-11-04T13:22:53.225Z,74
2015-11-04T13:23:53.761Z,74
2015-11-04T13:24:53.904Z,73
2015-11-04T13:25:56.718Z,73
2015-11-04T13:26:53.675Z,73
2015-11-04T13:27:56.662Z,73
2015-11-04T13:29:57.261Z,73
2015-11-04T13:34:54.586Z,73
2015-11-04T13:35:57.527Z,73
2015-11-04T13:36:54.046Z,73
2015-11-04T13:37:53.766Z,73
2015-11-04T13:38:53.488Z,73
2015-11-04T13:40:52.962Z,73
2015-11-04T13:41:52.747Z,73
2015-11-04T13:42:57.483Z,73
2015-11-04T13:43:54.204Z,73
2015-11-04T13:44:53.677Z,73
2015-11-04T13:45:53.163Z,73
2015-11-04T13:46:52.632Z,73
2015-11-04T13:47:52.073Z,73
2015-11-04T13:48:51.560Z,73
2015-11-04T13:49:51.031Z,73
2015-11-04T13:50:50.487Z,73
2015-11-04T13:51:50.037Z,72
2015-11-04T13:52:54.790Z,72
2015-11-04T13:53:50.979Z,73
2015-11-04T13:54:50.451Z,73
2015-11-04T13:58:47.571Z,72
2015-11-04T14:04:48.212Z,72
2015-11-04T14:08:44.021Z,72
2015-11-04T14:09:39.678Z,72
2015-11-04T14:11:37.139Z,72
2015-11-04T14:12:39.156Z,72
2015-11-04T14:13:40.565Z,72
2015-11-04T14:14:36.255Z,72
2015-11-04T14:15:34.961Z,72
2015-11-04T14:16:33.652Z,71
2015-11-04T14:17:32.326Z,72
2015-11-04T14:18:31.001Z,72
2015-11-04T14:19:29.503Z,72
2015-11-04T14:20:28.206Z,72
2015-11-04T14:21:26.959Z,72
2015-11-04T14:22:28.697Z,72
2015-11-04T14:23:27.387Z,72
2015-11-04T14:24:26.077Z,71
2015-11-04T14:26:23.489Z,71
2015-11-04T14:27:22.180Z,71
2015-11-04T14:28:21.150Z,71
2015-11-04T14:29:19.591Z,71
2015-11-04T14:30:18.296Z,71
2015-11-04T14:31:17.361Z,71
2015-11-04T14:32:18.786Z,71
2015-11-04T14:33:17.789Z,72
2015-11-04T14:34:16.464Z,72
2015-11-04T14:35:15.404Z,72
2015-11-04T14:36:14.360Z,72
2015-11-04T14:37:13.332Z,72
2015-11-04T14:38:12.272Z,72
2015-11-04T14:39:11.244Z,72
2015-11-04T14:40:10.199Z,72
2015-11-04T14:41:09.218Z,72
2015-11-04T14:42:10.939Z,72
2015-11-04T14:43:10.099Z,72
2015-11-04T14:44:08.866Z,72
2015-11-04T14:47:06.515Z,72
2015-11-04T14:50:04.148Z,72
2015-11-04T14:52:05.466Z,72
2015-11-04T14:53:04.672Z,72
2015-11-04T14:54:03.829Z,72
2015-11-04T14:56:02.021Z,72
2015-11-04T14:57:01.227Z,73
2015-11-04T14:58:00.699Z,73
2015-11-04T14:59:00.171Z,73
2015-11-04T14:59:59.730Z,73
2015-11-04T15:02:01.754Z,73
2015-11-04T15:03:00.447Z,73
2015-11-04T15:06:59.568Z,73
2015-11-04T15:07:59.258Z,73
2015-11-04T15:08:59.246Z,73
2015-11-04T15:09:59.233Z,74
2015-11-04T15:12:01.259Z,74
2015-11-04T15:13:01.716Z,74
2015-11-04T15:14:01.719Z,74
2015-11-04T15:15:02.221Z,74
2015-11-04T15:16:02.520Z,74
2015-11-04T15:17:02.664Z,74
2015-11-04T15:20:03.203Z,74
2015-11-04T15:21:03.487Z,74
2015-11-04T15:22:08.225Z,74
2015-11-04T15:23:05.461Z,74
2015-11-04T15:24:05.699Z,74
2015-11-04T15:25:08.951Z,74
2015-11-04T15:26:06.172Z,74
2015-11-04T15:27:06.425Z,74
2015-11-04T15:28:06.663Z,74
2015-11-04T15:29:06.963Z,74
2015-11-04T15:30:07.153Z,74
2015-11-04T15:32:09.151Z,74
2015-11-04T15:33:09.626Z,74
2015-11-04T15:34:10.132Z,74
2015-11-04T15:35:10.607Z,74
2015-11-04T15:37:14.698Z,75
2015-11-04T15:39:13.116Z,75
2015-11-04T15:40:13.865Z,75
2015-11-04T15:41:14.710Z,75
2015-11-04T15:42:16.399Z,75
2015-11-04T15:43:17.368Z,75
2015-11-04T15:44:17.917Z,75
2015-11-04T15:45:18.605Z,75
2015-11-04T15:47:20.438Z,75
2015-11-04T15:48:21.722Z,75
2015-11-04T15:50:23.477Z,75
2015-11-04T15:51:24.557Z,75
2015-11-04T15:52:26.278Z,75
2015-11-04T15:53:27.280Z,75
2015-11-04T15:56:34.132Z,75
2015-11-04T15:58:35.043Z,75
2015-11-04T15:59:34.937Z,75
2015-11-04T16:00:36.174Z,75
2015-11-04T16:02:39.226Z,76
2015-11-04T16:03:40.745Z,76
2015-11-04T16:04:45.295Z,76
2015-11-04T16:05:43.798Z,76
2015-11-04T16:06:48.347Z,76
2015-11-04T16:07:49.881Z,76
2015-11-04T16:08:48.650Z,76
2015-11-04T16:09:50.418Z,76
2015-11-04T16:11:54.079Z,76
2015-11-04T16:14:00.570Z,76
2015-11-04T16:15:02.353Z,76
2015-11-04T16:17:05.984Z,76
2015-11-04T16:18:04.689Z,76
2015-11-04T16:19:06.488Z,76
2015-11-04T16:20:08.258Z,76
2015-11-04T16:21:10.058Z,76
2015-11-04T16:22:11.888Z,77
2015-11-04T16:23:13.609Z,77
2015-11-04T16:24:15.972Z,77
2015-11-04T16:26:19.742Z,77
2015-11-04T16:28:23.827Z,76
2015-11-04T16:29:25.860Z,76
2015-11-04T16:32:32.556Z,76
2015-11-04T16:33:36.777Z,76
2015-11-04T16:34:35.796Z,77
2015-11-04T16:35:38.096Z,77
2015-11-04T16:37:42.695Z,77
2015-11-04T16:38:44.980Z,77
2015-11-04T16:39:47.310Z,77
2015-11-04T16:40:49.579Z,77
2015-11-04T16:41:51.878Z,77
2015-11-04T16:42:54.256Z,77
2015-11-04T16:47:02.845Z,77
2015-11-04T16:48:05.130Z,77
2015-11-04T16:49:07.429Z,77
2015-11-04T16:50:09.713Z,77
2015-11-04T16:51:12.309Z,77
2015-11-04T16:52:10.719Z,77
2015-11-04T16:53:12.831Z,77
2015-11-04T16:54:14.552Z,77
2015-11-04T16:55:13.211Z,77
2015-11-04T16:56:11.745Z,77
2015-11-04T16:57:09.888Z,77
2015-11-04T16:58:08.344Z,77
2015-11-04T16:59:06.800Z,77
2015-11-04T17:04:03.392Z,78
2015-11-04T17:05:01.879Z,78
2015-11-04T17:06:00.585Z,78
2015-11-04T17:06:59.291Z,78
2015-11-04T17:07:58.512Z,78
2015-11-04T17:08:57.483Z,78
2015-11-04T17:09:56.190Z,78
2015-11-04T17:10:55.427Z,78
2015-11-04T17:11:54.648Z,78
2015-11-04T17:12:53.963Z,78
2015-11-04T17:13:55.434Z,78
2015-11-04T17:14:54.657Z,78
2015-11-04T17:15:57.174Z,78
2015-11-04T17:16:53.068Z,78
2015-11-04T17:17:52.290Z,78
2015-11-04T17:18:51.495Z,79
2015-11-04T17:19:50.995Z,79
2015-11-04T17:20:50.451Z,79
2015-11-04T17:22:49.473Z,79
2015-11-04T17:24:50.682Z,79
2015-11-04T17:27:49.376Z,79
2015-11-04T17:28:49.114Z,79
2015-11-04T17:29:48.851Z,79
2015-11-04T17:31:48.310Z,79
2015-11-04T17:32:48.328Z,79
2015-11-04T17:33:49.878Z,79
2015-11-04T17:34:49.584Z,79
2015-11-04T17:35:49.336Z,79
2015-11-04T17:36:49.042Z,79
2015-11-04T17:39:48.784Z,79
2015-11-04T17:41:49.367Z,79
2015-11-04T17:43:50.873Z,80
2015-11-04T17:44:51.173Z,80
2015-11-04T17:45:51.660Z,80
2015-11-04T17:46:52.241Z,80
2015-11-04T17:47:51.588Z,80
2015-11-04T17:48:53.215Z,80
2015-11-04T17:49:52.280Z,80
2015-11-04T17:50:52.299Z,80
2015-11-04T17:51:52.567Z,80
2015-11-04T17:52:52.866Z,80
2015-11-04T17:53:57.620Z,80
2015-11-04T17:54:55.107Z,80
2015-11-04T17:55:55.609Z,80
2015-11-04T17:56:59.144Z,81
2015-11-04T17:57:57.161Z,81
2015-11-04T17:58:57.727Z,81
2015-11-04T18:00:59.483Z,81
2015-11-04T18:01:59.939Z,81
2015-11-04T18:04:02.506Z,81
2015-11-04T18:06:04.011Z,80
2015-11-04T18:07:04.796Z,80
2015-11-04T18:08:08.580Z,80
2015-11-04T18:09:06.317Z,80
2015-11-04T18:11:07.839Z,80